createdAt,value
2018-03-25T00:00:04.620Z,15.30
2018-03-25T00:01:04.776Z,15.30
2018-03-25T00:02:04.920Z,14.80
2018-03-25T00:03:05.068Z,14.90
2018-03-25T00:04:05.222Z,15.10
2018-03-25T00:05:05.372Z,15.60
2018-03-25T00:06:05.523Z,16.70
2018-03-25T00:07:05.677Z,16.30
2018-03-25T00:08:05.821Z,16.70
2018-03-25T00:09:05.969Z,17.10
2018-03-25T00:10:06.365Z,16.40
2018-03-25T00:11:06.269Z,17.30
2018-03-25T00:12:06.419Z,17.70
2018-03-25T00:13:06.583Z,16.60
2018-03-25T00:14:06.718Z,17.50
2018-03-25T00:15:06.868Z,18.10
2018-03-25T00:16:07.023Z,17.70
2018-03-25T00:17:07.170Z,17.30
2018-03-25T00:18:07.319Z,17.60
2018-03-25T00:19:07.469Z,17.00
2018-03-25T00:20:07.616Z,17.10
2018-03-25T00:21:07.776Z,16.70
2018-03-25T00:22:07.928Z,18.60
2018-03-25T00:23:08.082Z,17.70
2018-03-25T00:24:08.243Z,18.60
2018-03-25T00:26:08.523Z,18.90
2018-03-25T00:27:08.672Z,18.70
2018-03-25T00:28:08.824Z,18.30
2018-03-25T00:29:08.968Z,19.60
2018-03-25T00:30:09.121Z,18.90
2018-03-25T00:31:09.279Z,20.00
2018-03-25T00:32:09.420Z,19.50
2018-03-25T00:33:09.597Z,19.80
2018-03-25T00:34:09.738Z,20.40
2018-03-25T00:35:09.909Z,20.90
2018-03-25T00:36:10.051Z,21.10
2018-03-25T00:37:10.205Z,21.80
2018-03-25T00:38:10.350Z,21.30
2018-03-25T00:39:10.494Z,22.10
2018-03-25T00:40:10.649Z,22.00
2018-03-25T00:41:10.804Z,21.70
2018-03-25T00:42:10.944Z,22.30
2018-03-25T00:43:11.100Z,22.60
2018-03-25T00:44:11.243Z,22.50
2018-03-25T00:45:11.390Z,22.50
2018-03-25T00:46:11.538Z,22.20
2018-03-25T00:47:11.691Z,22.10
2018-03-25T00:48:11.836Z,21.70
2018-03-25T00:49:11.993Z,22.10
2018-03-25T00:50:12.384Z,21.90
2018-03-25T00:51:12.308Z,21.50
2018-03-25T00:52:12.454Z,20.90
2018-03-25T00:53:12.604Z,21.90
2018-03-25T00:54:12.745Z,21.10
2018-03-25T00:55:12.894Z,21.50
2018-03-25T00:56:13.045Z,22.20
2018-03-25T00:57:13.192Z,21.60
2018-03-25T00:58:13.344Z,22.20
2018-03-25T00:59:13.506Z,21.80
2018-03-25T01:00:13.639Z,22.00
2018-03-25T01:01:13.787Z,22.10
2018-03-25T01:03:14.080Z,21.70
2018-03-25T01:04:14.228Z,22.40
2018-03-25T01:06:14.524Z,22.10
2018-03-25T01:07:14.671Z,22.50
2018-03-25T01:08:14.838Z,22.20
2018-03-25T01:09:14.975Z,23.10
2018-03-25T01:10:15.110Z,22.00
2018-03-25T01:11:15.263Z,21.80
2018-03-25T01:12:15.411Z,21.10
2018-03-25T01:13:15.565Z,22.70
2018-03-25T01:14:15.712Z,21.40
2018-03-25T01:15:15.861Z,22.30
2018-03-25T01:16:16.008Z,23.00
2018-03-25T01:17:16.158Z,22.80
2018-03-25T01:18:16.309Z,22.20
2018-03-25T01:19:16.451Z,23.00
2018-03-25T01:20:16.599Z,23.00
2018-03-25T01:21:16.743Z,23.10
2018-03-25T01:22:16.902Z,23.30
2018-03-25T01:23:17.034Z,23.20
2018-03-25T01:24:17.175Z,23.60
2018-03-25T01:25:17.322Z,22.80
2018-03-25T01:26:17.467Z,23.50
2018-03-25T01:27:17.620Z,23.50
2018-03-25T01:28:17.755Z,23.60
2018-03-25T01:29:17.906Z,23.10
2018-03-25T01:30:18.052Z,24.00
2018-03-25T01:31:18.202Z,23.50
2018-03-25T01:32:18.331Z,24.20
2018-03-25T01:33:18.499Z,23.90
2018-03-25T01:34:18.645Z,24.90
2018-03-25T01:35:18.793Z,23.40
2018-03-25T01:36:18.935Z,22.80
2018-03-25T01:37:19.093Z,23.80
2018-03-25T01:38:19.237Z,24.10
2018-03-25T01:39:19.383Z,23.70
2018-03-25T01:40:19.529Z,24.40
2018-03-25T01:41:19.687Z,24.60
2018-03-25T01:42:19.847Z,24.90
2018-03-25T01:43:19.977Z,25.50
2018-03-25T01:44:20.130Z,25.60
2018-03-25T01:45:20.276Z,25.70
2018-03-25T01:46:20.429Z,25.10
2018-03-25T01:47:20.569Z,25.80
2018-03-25T01:48:20.713Z,25.20
2018-03-25T01:49:20.863Z,24.90
2018-03-25T01:50:21.010Z,25.90
2018-03-25T01:51:21.157Z,24.70
2018-03-25T01:52:21.306Z,25.30
2018-03-25T01:53:21.456Z,25.70
2018-03-25T01:54:21.614Z,26.00
2018-03-25T01:55:21.753Z,25.20
2018-03-25T01:56:21.899Z,26.70
2018-03-25T01:57:22.408Z,25.60
2018-03-25T01:58:22.195Z,25.40
2018-03-25T01:59:22.341Z,25.20
2018-03-25T02:00:22.497Z,25.70
2018-03-25T02:01:22.640Z,25.10
2018-03-25T02:02:22.787Z,26.40
2018-03-25T02:03:22.932Z,26.00
2018-03-25T02:04:23.083Z,25.50
2018-03-25T02:05:23.231Z,26.70
2018-03-25T02:06:23.372Z,26.40
2018-03-25T02:07:23.525Z,26.40
2018-03-25T02:08:23.669Z,25.90
2018-03-25T02:09:23.821Z,26.10
2018-03-25T02:10:23.964Z,26.00
2018-03-25T02:11:24.109Z,27.40
2018-03-25T02:13:24.401Z,26.70
2018-03-25T02:14:24.545Z,25.80
2018-03-25T02:15:24.695Z,25.90
2018-03-25T02:16:24.840Z,25.90
2018-03-25T02:17:24.989Z,25.70
2018-03-25T02:18:25.145Z,26.00
2018-03-25T02:19:25.298Z,25.90
2018-03-25T02:20:25.436Z,26.30
2018-03-25T02:21:25.582Z,27.40
2018-03-25T02:22:25.731Z,26.70
2018-03-25T02:23:25.875Z,27.30
2018-03-25T02:24:26.041Z,27.40
2018-03-25T02:25:26.167Z,27.50
2018-03-25T02:26:26.312Z,27.50
2018-03-25T02:27:26.456Z,29.20
2018-03-25T02:28:26.604Z,28.30
2018-03-25T02:29:26.757Z,27.70
2018-03-25T02:30:26.894Z,26.50
2018-03-25T02:31:27.043Z,26.80
2018-03-25T02:32:27.197Z,26.90
2018-03-25T02:33:27.342Z,26.20
2018-03-25T02:34:27.489Z,26.70
2018-03-25T02:35:27.629Z,27.60
2018-03-25T02:36:27.776Z,26.30
2018-03-25T02:37:27.923Z,27.00
2018-03-25T02:38:28.073Z,25.40
2018-03-25T02:39:28.248Z,26.50
2018-03-25T02:40:28.378Z,26.40
2018-03-25T02:41:28.519Z,27.00
2018-03-25T02:42:28.665Z,27.40
2018-03-25T02:43:28.812Z,26.40
2018-03-25T02:44:28.957Z,28.10
2018-03-25T02:45:29.109Z,27.70
2018-03-25T02:46:29.259Z,27.20
2018-03-25T02:47:29.401Z,26.80
2018-03-25T02:48:29.549Z,28.00
2018-03-25T02:49:29.707Z,26.40
2018-03-25T02:50:29.846Z,27.60
2018-03-25T02:51:29.998Z,27.60
2018-03-25T02:52:30.140Z,27.20
2018-03-25T02:53:30.291Z,28.10
2018-03-25T02:54:30.428Z,27.20
2018-03-25T02:55:30.569Z,28.10
2018-03-25T02:56:30.716Z,27.70
2018-03-25T02:57:30.861Z,27.40
2018-03-25T02:58:31.008Z,27.90
2018-03-25T02:59:31.159Z,27.50
2018-03-25T03:00:31.302Z,28.00
2018-03-25T03:01:31.447Z,27.40
2018-03-25T03:02:31.599Z,27.40
2018-03-25T03:03:31.743Z,28.10
2018-03-25T03:04:31.891Z,27.60
2018-03-25T03:05:32.041Z,28.40
2018-03-25T03:06:32.188Z,28.10
2018-03-25T03:07:32.335Z,27.40
2018-03-25T03:08:32.478Z,27.80
2018-03-25T03:09:32.629Z,27.50
2018-03-25T03:10:32.780Z,27.50
2018-03-25T03:11:32.924Z,27.70
2018-03-25T03:12:33.084Z,27.80
2018-03-25T03:13:33.225Z,28.80
2018-03-25T03:14:33.374Z,27.60
2018-03-25T03:15:33.521Z,27.50
2018-03-25T03:16:33.678Z,26.90
2018-03-25T03:17:33.815Z,28.40
2018-03-25T03:18:33.965Z,27.70
2018-03-25T03:19:34.350Z,28.60
2018-03-25T03:20:34.258Z,27.90
2018-03-25T03:21:34.410Z,26.00
2018-03-25T03:22:34.560Z,28.30
2018-03-25T03:23:34.700Z,28.50
2018-03-25T03:24:34.851Z,27.60
2018-03-25T03:25:34.995Z,28.90
2018-03-25T03:26:35.155Z,28.40
2018-03-25T03:27:35.293Z,27.20
2018-03-25T03:28:35.436Z,28.00
2018-03-25T03:29:35.591Z,27.60
2018-03-25T03:30:35.735Z,29.10
2018-03-25T03:31:35.889Z,28.00
2018-03-25T03:32:36.030Z,28.30
2018-03-25T03:33:36.179Z,28.30
2018-03-25T03:34:36.332Z,28.60
2018-03-25T03:35:36.475Z,28.90
2018-03-25T03:36:36.623Z,26.90
2018-03-25T03:37:36.774Z,28.10
2018-03-25T03:38:36.920Z,28.20
2018-03-25T03:39:37.068Z,28.40
2018-03-25T03:40:37.217Z,28.20
2018-03-25T03:41:37.364Z,28.20
2018-03-25T03:42:37.512Z,28.00
2018-03-25T03:43:37.657Z,27.20
2018-03-25T03:44:37.804Z,28.00
2018-03-25T03:45:37.952Z,27.40
2018-03-25T03:46:38.103Z,27.70
2018-03-25T03:47:38.250Z,28.30
2018-03-25T03:48:38.400Z,27.80
2018-03-25T03:49:38.544Z,27.90
2018-03-25T03:50:38.711Z,27.50
2018-03-25T03:51:38.855Z,29.30
2018-03-25T03:52:39.004Z,27.60
2018-03-25T03:53:39.152Z,27.90
2018-03-25T03:54:39.300Z,28.80
2018-03-25T03:55:39.449Z,28.00
2018-03-25T03:56:39.594Z,28.00
2018-03-25T03:57:39.737Z,28.50
2018-03-25T03:58:39.885Z,29.00
2018-03-25T03:59:40.037Z,28.60
2018-03-25T04:00:40.184Z,28.00
2018-03-25T04:01:40.330Z,28.00
2018-03-25T04:02:40.477Z,28.80
2018-03-25T04:03:40.630Z,27.90
2018-03-25T04:04:40.779Z,28.30
2018-03-25T04:05:40.929Z,27.90
2018-03-25T04:06:41.072Z,28.40
2018-03-25T04:07:41.462Z,28.50
2018-03-25T04:08:41.367Z,27.10
2018-03-25T04:09:41.513Z,27.80
2018-03-25T04:10:41.671Z,28.10
2018-03-25T04:11:41.811Z,28.70
2018-03-25T04:12:41.958Z,28.10
2018-03-25T04:13:42.104Z,28.40
2018-03-25T04:14:42.254Z,28.50
2018-03-25T04:15:42.395Z,28.70
2018-03-25T04:16:42.545Z,28.70
2018-03-25T04:17:42.693Z,28.90
2018-03-25T04:18:42.837Z,29.50
2018-03-25T04:19:42.987Z,27.60
2018-03-25T04:20:43.133Z,26.90
2018-03-25T04:21:43.278Z,28.60
2018-03-25T04:22:43.423Z,28.10
2018-03-25T04:23:43.580Z,29.40
2018-03-25T04:24:43.723Z,28.00
2018-03-25T04:25:43.869Z,28.70
2018-03-25T04:26:44.021Z,28.10
2018-03-25T04:27:44.161Z,29.10
2018-03-25T04:28:44.311Z,28.20
2018-03-25T04:29:44.464Z,28.60
2018-03-25T04:30:44.607Z,28.70
2018-03-25T04:31:44.752Z,28.40
2018-03-25T04:32:44.900Z,28.60
2018-03-25T04:33:45.047Z,29.30
2018-03-25T04:34:45.195Z,29.20
2018-03-25T04:35:45.341Z,29.30
2018-03-25T04:36:45.538Z,29.60
2018-03-25T04:37:45.643Z,29.90
2018-03-25T04:38:45.783Z,28.80
2018-03-25T04:39:45.933Z,28.80
2018-03-25T04:40:46.076Z,29.30
2018-03-25T04:41:46.234Z,29.20
2018-03-25T04:42:46.373Z,29.90
2018-03-25T04:43:46.517Z,29.30
2018-03-25T04:44:46.664Z,29.40
2018-03-25T04:45:46.810Z,29.20
2018-03-25T04:46:46.952Z,29.20
2018-03-25T04:47:47.098Z,29.30
2018-03-25T04:48:47.244Z,29.50
2018-03-25T04:49:47.390Z,29.40
2018-03-25T04:50:47.536Z,29.50
2018-03-25T04:51:47.685Z,29.10
2018-03-25T04:52:47.834Z,29.80
2018-03-25T04:53:48.243Z,29.00
2018-03-25T04:54:48.128Z,29.40
2018-03-25T04:55:48.279Z,28.80
2018-03-25T04:56:48.428Z,29.80
2018-03-25T04:57:48.570Z,28.50
2018-03-25T04:58:48.713Z,28.10
2018-03-25T04:59:48.862Z,27.70
2018-03-25T05:00:49.013Z,26.40
2018-03-25T05:01:49.409Z,26.80
2018-03-25T05:02:49.300Z,27.80
2018-03-25T05:03:49.449Z,29.40
2018-03-25T05:04:49.600Z,27.80
2018-03-25T05:05:49.739Z,27.80
2018-03-25T05:06:49.886Z,27.60
2018-03-25T05:07:50.037Z,29.50
2018-03-25T05:08:50.173Z,27.90
2018-03-25T05:09:50.325Z,27.50
2018-03-25T05:10:50.470Z,28.20
2018-03-25T05:11:50.619Z,28.60
2018-03-25T05:12:50.767Z,27.60
2018-03-25T05:13:50.912Z,27.30
2018-03-25T05:14:51.066Z,27.50
2018-03-25T05:15:51.209Z,27.10
2018-03-25T05:16:51.352Z,27.90
2018-03-25T05:17:51.502Z,28.20
2018-03-25T05:18:51.679Z,28.30
2018-03-25T05:19:51.793Z,27.60
2018-03-25T05:20:51.943Z,29.20
2018-03-25T05:21:52.092Z,29.80
2018-03-25T05:22:52.238Z,29.60
2018-03-25T05:23:52.377Z,29.40
2018-03-25T05:24:52.523Z,28.90
2018-03-25T05:25:52.667Z,28.60
2018-03-25T05:26:52.816Z,28.20
2018-03-25T05:27:52.962Z,29.40
2018-03-25T05:28:53.121Z,29.30
2018-03-25T05:29:53.263Z,28.20
2018-03-25T05:30:53.410Z,28.10
2018-03-25T05:31:53.554Z,27.60
2018-03-25T05:32:53.703Z,28.50
2018-03-25T05:33:53.853Z,28.60
2018-03-25T05:34:53.996Z,28.60
2018-03-25T05:35:54.133Z,28.40
2018-03-25T05:36:54.275Z,29.10
2018-03-25T05:37:54.423Z,27.80
2018-03-25T05:38:54.571Z,29.00
2018-03-25T05:39:54.716Z,28.40
2018-03-25T05:40:54.867Z,27.80
2018-03-25T05:41:55.009Z,27.70
2018-03-25T05:42:55.162Z,29.00
2018-03-25T05:43:55.301Z,29.80
2018-03-25T05:44:55.452Z,28.70
2018-03-25T05:45:55.602Z,28.00
2018-03-25T05:46:55.748Z,28.70
2018-03-25T05:47:55.896Z,29.20
2018-03-25T05:48:56.060Z,30.10
2018-03-25T05:49:56.193Z,30.80
2018-03-25T05:50:56.342Z,28.50
2018-03-25T05:51:56.489Z,29.80
2018-03-25T05:52:56.635Z,30.10
2018-03-25T05:53:56.815Z,29.00
2018-03-25T05:54:56.933Z,28.60
2018-03-25T05:55:57.080Z,29.70
2018-03-25T05:56:57.231Z,29.90
2018-03-25T05:57:57.374Z,30.10
2018-03-25T05:58:57.524Z,29.30
2018-03-25T05:59:57.675Z,28.60
2018-03-25T06:00:57.821Z,29.30
2018-03-25T06:01:57.970Z,29.50
2018-03-25T06:02:58.114Z,30.20
2018-03-25T06:03:58.260Z,29.00
2018-03-25T06:04:58.406Z,29.00
2018-03-25T06:05:58.554Z,29.10
2018-03-25T06:06:58.703Z,28.90
2018-03-25T06:07:58.856Z,29.20
2018-03-25T06:08:58.993Z,28.50
2018-03-25T06:09:59.141Z,28.50
2018-03-25T06:10:59.293Z,28.40
2018-03-25T06:11:59.441Z,28.70
2018-03-25T06:12:59.589Z,29.10
2018-03-25T06:13:59.737Z,28.70
2018-03-25T06:14:59.893Z,28.50
2018-03-25T06:16:00.137Z,29.10
2018-03-25T06:17:00.181Z,28.90
2018-03-25T06:18:00.330Z,27.80
2018-03-25T06:19:00.485Z,27.80
2018-03-25T06:20:00.633Z,27.20
2018-03-25T06:21:00.776Z,27.30
2018-03-25T06:22:00.926Z,25.50
2018-03-25T06:23:01.054Z,26.30
2018-03-25T06:24:01.204Z,25.20
2018-03-25T06:25:01.351Z,25.60
2018-03-25T06:26:01.505Z,26.70
2018-03-25T06:27:01.654Z,25.60
2018-03-25T06:28:01.805Z,25.80
2018-03-25T06:29:02.015Z,26.90
2018-03-25T06:30:02.096Z,25.20
2018-03-25T06:31:02.245Z,26.10
2018-03-25T06:32:02.426Z,25.80
2018-03-25T06:33:02.542Z,26.10
2018-03-25T06:34:02.685Z,25.80
2018-03-25T06:35:02.831Z,26.40
2018-03-25T06:36:02.980Z,26.80
2018-03-25T06:37:03.122Z,26.40
2018-03-25T06:38:03.331Z,25.70
2018-03-25T06:39:03.422Z,25.00
2018-03-25T06:40:03.569Z,24.90
2018-03-25T06:41:03.716Z,24.30
2018-03-25T06:42:03.866Z,24.90
2018-03-25T06:43:04.015Z,26.70
2018-03-25T06:44:04.165Z,26.40
2018-03-25T06:45:04.318Z,25.90
2018-03-25T06:46:04.462Z,28.30
2018-03-25T06:47:04.610Z,27.10
2018-03-25T06:48:04.765Z,25.20
2018-03-25T06:49:04.916Z,25.90
2018-03-25T06:50:05.067Z,25.90
2018-03-25T06:51:05.211Z,25.50
2018-03-25T06:52:05.361Z,26.90
2018-03-25T06:53:05.517Z,25.90
2018-03-25T06:54:05.652Z,25.80
2018-03-25T06:55:05.801Z,25.90
2018-03-25T06:56:06.198Z,26.60
2018-03-25T06:57:06.099Z,26.20
2018-03-25T06:58:06.251Z,27.20
2018-03-25T06:59:06.405Z,26.10
2018-03-25T07:00:06.555Z,25.50
2018-03-25T07:01:06.702Z,25.50
2018-03-25T07:02:06.857Z,25.90
2018-03-25T07:03:07.006Z,26.20
2018-03-25T07:04:07.157Z,25.50
2018-03-25T07:05:07.307Z,25.40
2018-03-25T07:06:07.456Z,27.30
2018-03-25T07:07:07.604Z,26.10
2018-03-25T07:08:07.755Z,27.00
2018-03-25T07:09:07.905Z,27.60
2018-03-25T07:10:08.053Z,25.70
2018-03-25T07:11:08.248Z,25.70
2018-03-25T07:12:08.344Z,25.80
2018-03-25T07:13:08.487Z,26.50
2018-03-25T07:14:08.635Z,26.30
2018-03-25T07:15:08.787Z,25.70
2018-03-25T07:16:08.950Z,26.00
2018-03-25T07:17:09.084Z,25.40
2018-03-25T07:18:09.238Z,26.40
2018-03-25T07:19:09.387Z,26.70
2018-03-25T07:20:09.541Z,26.50
2018-03-25T07:21:09.689Z,25.60
2018-03-25T07:22:09.839Z,25.90
2018-03-25T07:23:09.991Z,24.80
2018-03-25T07:24:10.142Z,25.60
2018-03-25T07:25:10.293Z,24.90
2018-03-25T07:26:10.441Z,25.00
2018-03-25T07:27:10.595Z,24.00
2018-03-25T07:28:10.746Z,23.20
2018-03-25T07:29:10.903Z,23.90
2018-03-25T07:30:11.072Z,23.50
2018-03-25T07:31:11.202Z,23.60
2018-03-25T07:32:11.352Z,24.80
2018-03-25T07:33:11.506Z,23.80
2018-03-25T07:34:11.655Z,23.50
2018-03-25T07:35:11.810Z,24.50
2018-03-25T07:36:11.963Z,24.00
2018-03-25T07:37:12.117Z,23.60
2018-03-25T07:38:12.267Z,23.60
2018-03-25T07:39:12.424Z,24.10
2018-03-25T07:40:12.583Z,23.90
2018-03-25T07:41:12.735Z,23.50
2018-03-25T07:42:12.882Z,23.60
2018-03-25T07:43:13.038Z,23.40
2018-03-25T07:44:13.188Z,23.60
2018-03-25T07:45:13.342Z,23.60
2018-03-25T07:46:13.496Z,23.90
2018-03-25T07:47:13.654Z,24.10
2018-03-25T07:48:13.805Z,23.60
2018-03-25T07:49:13.961Z,22.90
2018-03-25T07:50:14.109Z,23.20
2018-03-25T07:51:14.262Z,23.20
2018-03-25T07:52:14.418Z,23.10
2018-03-25T07:53:14.594Z,22.80
2018-03-25T07:54:14.760Z,22.70
2018-03-25T07:55:14.920Z,22.50
2018-03-25T07:56:15.072Z,22.50
2018-03-25T07:57:15.222Z,23.00
2018-03-25T07:58:15.380Z,23.10
2018-03-25T07:59:15.534Z,23.20
2018-03-25T08:00:15.691Z,22.90
2018-03-25T08:01:15.847Z,23.20
2018-03-25T08:02:16.001Z,23.30
2018-03-25T08:03:16.154Z,24.10
2018-03-25T08:04:16.549Z,23.40
2018-03-25T08:05:16.464Z,23.40
2018-03-25T08:06:16.623Z,22.90
2018-03-25T08:07:16.782Z,23.00
2018-03-25T08:08:16.918Z,23.20
2018-03-25T08:09:17.079Z,23.70
2018-03-25T08:10:17.230Z,23.40
2018-03-25T08:11:17.384Z,23.60
2018-03-25T08:12:17.536Z,23.60
2018-03-25T08:13:17.692Z,23.40
2018-03-25T08:14:17.847Z,23.80
2018-03-25T08:15:17.995Z,24.30
2018-03-25T08:16:18.177Z,24.60
2018-03-25T08:17:18.317Z,23.50
2018-03-25T08:18:18.473Z,23.10
2018-03-25T08:19:18.627Z,24.70
2018-03-25T08:20:18.784Z,24.40
2018-03-25T08:21:18.929Z,25.10
2018-03-25T08:22:19.085Z,24.30
2018-03-25T08:23:19.242Z,25.00
2018-03-25T08:24:19.394Z,24.80
2018-03-25T08:25:19.553Z,24.10
2018-03-25T08:26:19.706Z,24.60
2018-03-25T08:27:19.860Z,25.20
2018-03-25T08:28:20.014Z,24.50
2018-03-25T08:29:20.167Z,24.70
2018-03-25T08:30:20.321Z,25.20
2018-03-25T08:31:20.485Z,25.00
2018-03-25T08:32:20.648Z,25.10
2018-03-25T08:33:20.801Z,24.60
2018-03-25T08:34:20.951Z,25.70
2018-03-25T08:35:21.113Z,25.10
2018-03-25T08:36:21.265Z,25.30
2018-03-25T08:37:21.416Z,25.60
2018-03-25T08:38:21.573Z,24.40
2018-03-25T08:39:21.728Z,24.80
2018-03-25T08:40:21.881Z,26.40
2018-03-25T08:42:22.184Z,26.40
2018-03-25T08:43:22.341Z,25.20
2018-03-25T08:44:22.495Z,26.60
2018-03-25T08:45:22.649Z,26.00
2018-03-25T08:46:22.803Z,25.60
2018-03-25T08:47:22.957Z,26.60
2018-03-25T08:48:23.112Z,26.40
2018-03-25T08:49:23.271Z,25.30
2018-03-25T08:50:23.425Z,25.80
2018-03-25T08:51:23.584Z,25.80
2018-03-25T08:52:23.736Z,26.00
2018-03-25T08:53:23.884Z,26.60
2018-03-25T08:54:24.038Z,25.40
2018-03-25T08:55:24.191Z,25.50
2018-03-25T08:56:24.348Z,25.40
2018-03-25T08:57:24.500Z,26.30
2018-03-25T08:58:24.655Z,25.70
2018-03-25T08:59:24.810Z,25.80
2018-03-25T09:00:25.028Z,25.60
2018-03-25T09:01:25.125Z,25.50
2018-03-25T09:02:25.279Z,25.10
2018-03-25T09:03:25.436Z,24.90
2018-03-25T09:04:25.613Z,25.60
2018-03-25T09:05:25.749Z,26.30
2018-03-25T09:06:25.908Z,25.60
2018-03-25T09:07:26.058Z,25.70
2018-03-25T09:08:26.213Z,25.50
2018-03-25T09:09:26.619Z,25.90
2018-03-25T09:10:26.521Z,26.00
2018-03-25T09:11:26.673Z,26.70
2018-03-25T09:12:26.831Z,26.10
2018-03-25T09:13:26.986Z,26.20
2018-03-25T09:14:27.126Z,26.80
2018-03-25T09:15:27.281Z,25.80
2018-03-25T09:16:27.436Z,25.70
2018-03-25T09:17:27.602Z,25.90
2018-03-25T09:18:27.748Z,25.30
2018-03-25T09:19:27.906Z,25.00
2018-03-25T09:20:28.063Z,25.40
2018-03-25T09:21:28.215Z,24.00
2018-03-25T09:22:28.370Z,25.10
2018-03-25T09:23:28.532Z,24.80
2018-03-25T09:24:28.680Z,25.10
2018-03-25T09:25:28.844Z,24.40
2018-03-25T09:26:29.002Z,24.30
2018-03-25T09:27:29.147Z,24.40
2018-03-25T09:28:29.305Z,24.60
2018-03-25T09:29:29.459Z,23.80
2018-03-25T09:30:29.621Z,24.00
2018-03-25T09:31:30.004Z,24.20
2018-03-25T09:32:29.924Z,23.70
2018-03-25T09:33:30.085Z,22.80
2018-03-25T09:35:30.388Z,23.80
2018-03-25T09:36:30.538Z,24.10
2018-03-25T09:37:30.691Z,23.10
2018-03-25T09:38:30.845Z,23.30
2018-03-25T09:39:31.003Z,23.90
2018-03-25T09:40:31.159Z,22.90
2018-03-25T09:41:31.309Z,23.40
2018-03-25T09:42:31.470Z,24.00
2018-03-25T09:43:31.638Z,22.60
2018-03-25T09:44:31.788Z,23.50
2018-03-25T09:45:31.936Z,23.30
2018-03-25T09:46:32.092Z,22.50
2018-03-25T09:47:32.253Z,22.10
2018-03-25T09:48:32.399Z,22.50
2018-03-25T09:49:32.553Z,22.80
2018-03-25T09:50:32.706Z,22.90
2018-03-25T09:51:32.866Z,22.00
2018-03-25T09:52:33.020Z,22.30
2018-03-25T09:53:33.185Z,22.00
2018-03-25T09:54:33.337Z,21.40
2018-03-25T09:55:33.498Z,21.20
2018-03-25T09:56:33.897Z,21.90
2018-03-25T09:57:33.808Z,21.80
2018-03-25T09:58:34.031Z,21.90
2018-03-25T10:00:34.293Z,22.60
2018-03-25T10:01:34.429Z,22.80
2018-03-25T10:02:34.578Z,23.40
2018-03-25T10:03:34.732Z,22.90
2018-03-25T10:04:34.912Z,22.00
2018-03-25T10:05:35.044Z,21.30
2018-03-25T10:06:35.190Z,22.00
2018-03-25T10:07:35.358Z,21.40
2018-03-25T10:08:35.497Z,20.90
2018-03-25T10:09:35.657Z,20.30
2018-03-25T10:10:35.813Z,21.00
2018-03-25T10:11:35.972Z,22.00
2018-03-25T10:12:36.121Z,22.10
2018-03-25T10:13:36.271Z,20.80
2018-03-25T10:14:36.432Z,20.80
2018-03-25T10:15:36.598Z,20.50
2018-03-25T10:16:36.738Z,20.70
2018-03-25T10:17:36.888Z,20.90
2018-03-25T10:18:37.046Z,20.90
2018-03-25T10:19:37.202Z,20.70
2018-03-25T10:20:37.356Z,20.30
2018-03-25T10:21:37.513Z,20.60
2018-03-25T10:22:37.699Z,19.70
2018-03-25T10:23:37.818Z,19.30
2018-03-25T10:24:37.976Z,19.50
2018-03-25T10:25:38.145Z,19.70
2018-03-25T10:26:38.291Z,19.60
2018-03-25T10:27:38.442Z,19.30
2018-03-25T10:28:38.590Z,20.70
2018-03-25T10:29:38.760Z,20.60
2018-03-25T10:30:38.911Z,20.30
2018-03-25T10:31:39.068Z,19.20
2018-03-25T10:32:39.221Z,17.80
2018-03-25T10:33:39.376Z,18.00
2018-03-25T10:34:39.535Z,17.60
2018-03-25T10:35:39.691Z,17.70
2018-03-25T10:36:39.847Z,18.20
2018-03-25T10:37:40.010Z,17.60
2018-03-25T10:38:40.162Z,23.40
2018-03-25T10:39:40.314Z,18.20
2018-03-25T10:40:40.476Z,20.00
2018-03-25T10:41:40.634Z,20.00
2018-03-25T10:42:40.786Z,18.80
2018-03-25T10:43:40.938Z,18.60
2018-03-25T10:44:41.104Z,18.40
2018-03-25T10:45:41.253Z,19.80
2018-03-25T10:46:41.414Z,18.60
2018-03-25T10:47:41.559Z,19.20
2018-03-25T10:48:41.722Z,19.20
2018-03-25T10:49:42.117Z,19.20
2018-03-25T10:50:42.030Z,18.90
2018-03-25T10:51:42.192Z,18.10
2018-03-25T10:52:42.348Z,18.60
2018-03-25T10:53:42.502Z,18.40
2018-03-25T10:54:42.653Z,18.40
2018-03-25T10:55:42.813Z,18.20
2018-03-25T10:56:42.961Z,18.50
2018-03-25T10:57:43.116Z,16.70
2018-03-25T10:58:43.275Z,18.60
2018-03-25T10:59:43.429Z,18.10
2018-03-25T11:00:43.892Z,17.20
2018-03-25T11:01:43.737Z,17.50
2018-03-25T11:02:43.891Z,16.20
2018-03-25T11:03:44.059Z,16.20
2018-03-25T11:04:44.270Z,15.40
2018-03-25T11:05:44.357Z,15.70
2018-03-25T11:06:44.514Z,16.30
2018-03-25T11:07:44.674Z,15.80
2018-03-25T11:08:44.834Z,15.70
2018-03-25T11:09:44.989Z,15.80
2018-03-25T11:10:45.140Z,15.70
2018-03-25T11:11:45.353Z,16.10
2018-03-25T11:12:45.455Z,15.00
2018-03-25T11:13:45.608Z,15.00
2018-03-25T11:14:45.766Z,15.00
2018-03-25T11:15:45.922Z,14.70
2018-03-25T11:16:46.078Z,14.00
2018-03-25T11:17:46.234Z,14.40
2018-03-25T11:18:46.381Z,14.70
2018-03-25T11:19:46.537Z,15.60
2018-03-25T11:20:46.692Z,15.10
2018-03-25T11:21:46.853Z,14.80
2018-03-25T11:22:47.014Z,16.50
2018-03-25T11:23:47.159Z,15.90
2018-03-25T11:24:47.315Z,16.10
2018-03-25T11:25:47.474Z,15.50
2018-03-25T11:26:47.633Z,15.80
2018-03-25T11:27:47.791Z,16.20
2018-03-25T11:28:47.941Z,15.80
2018-03-25T11:29:48.099Z,15.10
2018-03-25T11:30:48.251Z,16.80
2018-03-25T11:31:48.405Z,16.00
2018-03-25T11:32:48.560Z,16.30
2018-03-25T11:33:48.719Z,16.30
2018-03-25T11:34:48.880Z,15.20
2018-03-25T11:35:49.037Z,15.70
2018-03-25T11:36:49.191Z,16.10
2018-03-25T11:37:49.349Z,15.60
2018-03-25T11:38:49.514Z,15.40
2018-03-25T11:39:49.668Z,15.50
2018-03-25T11:40:49.820Z,15.20
2018-03-25T11:41:49.974Z,16.50
2018-03-25T11:42:50.137Z,14.70
2018-03-25T11:43:50.282Z,14.90
2018-03-25T11:44:50.440Z,15.80
2018-03-25T11:45:50.592Z,15.30
2018-03-25T11:46:50.754Z,15.30
2018-03-25T11:47:50.920Z,17.50
2018-03-25T11:48:51.066Z,16.10
2018-03-25T11:49:51.214Z,15.40
2018-03-25T11:50:51.368Z,16.10
2018-03-25T11:51:51.536Z,15.50
2018-03-25T11:52:51.693Z,16.70
2018-03-25T11:53:51.845Z,16.00
2018-03-25T11:54:51.998Z,16.80
2018-03-25T11:55:52.158Z,16.70
2018-03-25T11:56:52.312Z,16.80
2018-03-25T11:57:52.470Z,17.20
2018-03-25T11:58:52.632Z,16.70
2018-03-25T11:59:52.778Z,17.30
2018-03-25T12:00:52.934Z,16.80
2018-03-25T12:01:53.093Z,15.40
2018-03-25T12:02:53.257Z,15.90
2018-03-25T12:03:53.404Z,16.60
2018-03-25T12:04:53.562Z,15.70
2018-03-25T12:05:53.716Z,15.40
2018-03-25T12:06:53.928Z,14.90
2018-03-25T12:07:54.452Z,16.30
2018-03-25T12:08:54.182Z,14.90
2018-03-25T12:09:54.349Z,15.60
2018-03-25T12:10:54.504Z,15.20
2018-03-25T12:11:54.653Z,16.00
2018-03-25T12:12:54.818Z,16.30
2018-03-25T12:13:54.968Z,16.40
2018-03-25T12:14:55.165Z,15.60
2018-03-25T12:15:55.277Z,16.00
2018-03-25T12:16:55.430Z,16.00
2018-03-25T12:17:55.585Z,15.50
2018-03-25T12:18:55.766Z,15.80
2018-03-25T12:19:55.892Z,15.30
2018-03-25T12:20:56.050Z,15.10
2018-03-25T12:21:56.206Z,15.70
2018-03-25T12:22:56.360Z,15.70
2018-03-25T12:23:56.530Z,15.70
2018-03-25T12:24:56.673Z,15.50
2018-03-25T12:25:56.832Z,15.30
2018-03-25T12:26:56.984Z,13.90
2018-03-25T12:27:57.139Z,14.00
2018-03-25T12:28:57.295Z,15.40
2018-03-25T12:29:57.460Z,15.60
2018-03-25T12:30:57.609Z,15.40
2018-03-25T12:31:57.764Z,15.20
2018-03-25T12:32:57.934Z,15.80
2018-03-25T12:33:58.077Z,15.70
2018-03-25T12:34:58.239Z,16.80
2018-03-25T12:35:58.402Z,17.00
2018-03-25T12:36:58.555Z,17.10
2018-03-25T12:37:58.709Z,16.90
2018-03-25T12:38:58.875Z,15.60
2018-03-25T12:39:59.027Z,15.60
2018-03-25T12:40:59.176Z,15.50
2018-03-25T12:41:59.333Z,15.60
2018-03-25T12:42:59.472Z,14.60
2018-03-25T12:43:59.625Z,15.50
2018-03-25T12:44:59.790Z,15.70
2018-03-25T12:45:59.938Z,14.80
2018-03-25T12:47:00.097Z,14.80
2018-03-25T12:48:00.248Z,15.00
2018-03-25T12:49:00.414Z,15.70
2018-03-25T12:50:00.565Z,15.60
2018-03-25T12:51:00.712Z,15.10
2018-03-25T12:52:00.871Z,15.10
2018-03-25T12:53:01.023Z,15.10
2018-03-25T12:54:01.181Z,14.90
2018-03-25T12:55:01.394Z,14.90
2018-03-25T12:56:01.489Z,15.50
2018-03-25T12:57:01.645Z,15.10
2018-03-25T12:58:01.803Z,15.70
2018-03-25T12:59:01.955Z,16.20
2018-03-25T13:00:02.111Z,14.60
2018-03-25T13:02:02.425Z,15.10